Pagina principală
METAR-TAF:

METAR-TAF

Aeroporturi :

Iwo Jima, Japonia

Latitudine: 24-47N, longitudine: 141-19E, elevație: 113 m

Observații meteo curente

Raportul a fost făcut în urmă cu 54 de minute, la 09:00 UTC
Vânt 8 kt de la Sud/Sud-vest
Temperatură 24°C
Umiditate 78%
Presiune 1014 hPa
Vizibilitate de 10 km sau mai mult
Nori fragmentați la o înălțime de 2000 picior

METAR: RJAW 290900Z 20008KT 9999 BKN020 24/20 Q1014 RMK 6CU020 A2996

Ora: 18:54 (09:54 UTC)


TAF: lipsă

Observații și prognoze meteo pentru peste 4.000 de aeroporturi (rapoarte METAR și TAF).

Stațiile disponibile sunt reprezentate pe hartă prin puncte galbene și roșii.

Țineți indicatorul mouse-ului pe punctul dorit pentru a vedea denumirea stației.

Apoi, faceți clic pentru a vedea observațiile și prognozele meteorologice.

Pentru a schimba harta: Pentru mărire, faceți clic pe butoanele verzi cu cruce neagră; pentru micșorare, pe butonul verde cu o liniuță; pentru hărți învecinate, pe săgețile verzi.


METAR-TAF: